Home > Products > Valid Products > TAF

000
FTUS41 KLWX 012000 AAA
TAFBWI
TAF AMD
KBWI 012059Z 0121/0224 25010KT P6SM SCT050 BKN090
     FM012300 18005KT P6SM SCT050 BKN090
     FM020200 VRB03KT P6SM FEW090 SCT250
     FM021500 28007KT P6SM SCT090
     FM022000 22008KT P6SM BKN050=



000
FTUS41 KLWX 012000 AAB
TAFIAD
TAF AMD
KIAD 012059Z 0121/0224 VRB03KT P6SM SCT035
     FM012300 20005KT P6SM BKN090
     FM020200 21004KT P6SM FEW090 SCT250
     FM020700 00000KT P6SM SCT250
     FM021500 27006KT P6SM SCT090
     FM022000 21009KT P6SM BKN050=



000
FTUS41 KLWX 012000 AAC
TAFDCA
TAF AMD
KDCA 012059Z 0121/0218 22007KT P6SM BKN040
      TEMPO 0121/0122 6SM -RA
     FM012300 20005KT P6SM BKN090
     FM020200 20004KT P6SM FEW090 SCT250
     FM020800 27005KT P6SM SCT250=



000
FTUS41 KLWX 011900 AAB
TAFDCA
TAF AMD
KDCA 011951Z 0120/0218 22007KT P6SM VCTS BKN050CB
      TEMPO 0120/0121 VRB20G40KT 2SM TSRA OVC040CB
     FM012300 20005KT P6SM BKN090
     FM020200 20004KT P6SM FEW090 SCT250
     FM020800 27005KT P6SM SCT250=



000
FTUS41 KLWX 011900 AAA
TAFDCA
TAF AMD
KDCA 011933Z 0120/0218 22007KT P6SM VCTS BKN050CB
      TEMPO 0120/0121 2SM TSRA OVC040CB
     FM012300 20005KT P6SM BKN090
     FM020200 20004KT P6SM FEW090 SCT250
     FM020800 27005KT P6SM SCT250=



000
FTUS41 KLWX 011800 AAA
TAFIAD
TAF AMD
KIAD 011843Z 0119/0224 23005KT P6SM VCTS BKN050CB
      TEMPO 0119/0120 VRB25KT 5SM TSRA
     FM012300 20005KT P6SM BKN090
     FM020200 21004KT P6SM FEW090 SCT250
     FM020700 00000KT P6SM SCT250
     FM021500 27006KT P6SM SCT090
     FM022000 21009KT P6SM BKN050=



000
FTUS41 KLWX 011800 AAA
TAFMTN
TAF AMD
KMTN 011804Z 0118/0218 14007KT P6SM VCTS SCT030 BKN050CB
      TEMPO 0118/0119 5SM TSRA BKN030CB
     FM012300 17005KT P6SM SCT050 BKN090
     FM020200 VRB03KT P6SM FEW090 SCT250
     FM021500 28007KT P6SM SCT250=



000
FTUS41 KLWX 011700
TAFCHO
TAF
KCHO 011724Z 0118/0218 23004KT P6SM SCT050 BKN090
     FM012300 17004KT P6SM SCT090
     FM020000 00000KT P6SM SCT090
     FM020900 VRB03KT 3SM BR FEW250
     FM021300 00000KT P6SM FEW090
     FM021600 21006KT P6SM SCT090=



000
FTUS41 KLWX 011700
TAFMTN
TAF
KMTN 011724Z 0118/0218 14006KT P6SM SCT050 BKN090
     FM012000 16007KT P6SM VCTS BKN050CB
     FM012300 18005KT P6SM SCT050 BKN090
     FM020200 VRB03KT P6SM FEW090 SCT250
     FM021500 28007KT P6SM SCT250=



000
FTUS41 KLWX 011700
TAFBWI
TAF
KBWI 011724Z 0118/0224 22006KT P6SM SCT035 BKN090
     FM012000 21006KT P6SM VCTS BKN050CB
     FM012300 18005KT P6SM SCT050 BKN090
     FM020200 VRB03KT P6SM FEW090 SCT250
     FM021500 28007KT P6SM SCT090
     FM022000 22008KT P6SM BKN050=



000
FTUS41 KLWX 011700
TAFDCA
TAF
KDCA 011724Z 0118/0218 21007KT P6SM SCT040 BKN090
     FM012000 22007KT P6SM VCTS BKN050CB
     FM012300 20005KT P6SM BKN090
     FM020200 20004KT P6SM FEW090 SCT250
     FM020800 27005KT P6SM SCT250=



000
FTUS41 KLWX 011700
TAFIAD
TAF
KIAD 011724Z 0118/0224 24004KT P6SM SCT040 BKN090
     FM011900 23007KT P6SM VCTS BKN050CB
     FM012300 20005KT P6SM BKN090
     FM020200 21004KT P6SM FEW090 SCT250
     FM020700 00000KT P6SM SCT250
     FM021500 27006KT P6SM SCT090
     FM022000 21009KT P6SM BKN050=



000
FTUS41 KLWX 011700
TAFMRB
TAF
KMRB 011724Z 0118/0218 24005KT P6SM SCT035 BKN050
     FM011900 22008KT P6SM VCTS BKN050CB
     FM012300 21005KT P6SM SCT050 BKN090
     FM020200 22004KT P6SM FEW090 SCT250
     FM021700 23008KT P6SM BKN090=



000
FTUS41 KLWX 011700 AAA
TAFMRB
TAF AMD
KMRB 011706Z 0117/0212 23004KT P6SM -SHRA BKN050
     FM011800 24006KT P6SM VCTS BKN050CB
     FM012100 26004KT P6SM BKN050
     FM020200 VRB03KT P6SM SCT050=



000
FTUS41 KLWX 011400 AAA
TAFDCA
TAF AMD
KDCA 011459Z 0115/0212 21004KT P6SM FEW030 BKN090
     FM012000 24006KT P6SM VCTS BKN050CB
     FM020000 VRB03KT P6SM BKN050
     FM020200 VRB03KT P6SM SCT050=



000
FTUS41 KLWX 011400 AAA
TAFBWI
TAF AMD
KBWI 011459Z 0115/0218 25003KT P6SM FEW025 BKN090
     FM012000 24005KT P6SM VCTS BKN050CB
     FM020000 00000KT P6SM BKN050
     FM020300 00000KT P6SM SCT050
     FM021200 00000KT P6SM SKC
     FM021500 26007KT P6SM FEW250=



000
FTUS41 KLWX 011400 AAA
TAFIAD
TAF AMD
KIAD 011459Z 0115/0218 23004KT P6SM BKN090
     FM011900 25005KT P6SM VCTS BKN050CB
     FM012200 29008KT P6SM BKN050
     FM020200 VRB03KT P6SM SCT050
     FM021200 VRB03KT P6SM FEW250=



000
FTUS41 KLWX 011100
TAFIAD
TAF
KIAD 011131Z 0112/0218 00000KT P6SM BKN060
     FM011600 27004KT P6SM BKN060
     FM011800 25005KT P6SM VCTS BKN050CB
     FM012100 29008KT P6SM BKN050
     FM020200 VRB03KT P6SM SCT050
     FM021200 VRB03KT P6SM FEW250=



000
FTUS41 KLWX 011100
TAFMRB
TAF
KMRB 011131Z 0112/0212 00000KT P6SM BKN050
     FM011600 23004KT P6SM BKN050
     FM011800 24006KT P6SM VCTS BKN050CB
     FM012100 26004KT P6SM BKN050
     FM020200 VRB03KT P6SM SCT050=



000
FTUS41 KLWX 011100
TAFDCA
TAF
KDCA 011131Z 0112/0212 20003KT P6SM BKN060
     FM011900 24006KT P6SM VCTS BKN050CB
     FM020000 VRB03KT P6SM BKN050
     FM020200 VRB03KT P6SM SCT050=



000
FTUS41 KLWX 011100
TAFBWI
TAF
KBWI 011131Z 0112/0218 00000KT 4SM BR FEW010 BKN060
     FM011400 24003KT P6SM BKN060
     FM011900 22005KT P6SM VCTS BKN050CB
     FM020000 00000KT P6SM BKN050
     FM020300 00000KT P6SM SCT050
     FM021200 00000KT P6SM SKC
     FM021500 26007KT P6SM FEW250=



000
FTUS41 KLWX 011100
TAFMTN
TAF
KMTN 011131Z 0112/0212 VRB03KT P6SM BKN060
     FM011800 21006KT P6SM VCTS BKN050CB
     FM020000 VRB03KT P6SM BKN050
     FM020300 18004KT P6SM SCT050
     FM020500 00000KT P6SM FEW050=



000
FTUS41 KLWX 011100
TAFCHO
TAF
KCHO 011131Z 0112/0212 22006KT P6SM BKN050
     FM011500 25008KT P6SM SCT050
     FM011800 23007KT P6SM VCTS BKN050CB
     FM012100 25007KT P6SM BKN050
     FM020000 00000KT P6SM SCT050=



000
FTUS41 KLWX 010800 AAA
TAFDCA
TAF AMD
KDCA 010834Z 0109/0206 18003KT P6SM VCSH OVC080
     FM011200 22005KT P6SM BKN060
     FM011800 21006KT P6SM VCTS BKN045CB
     FM020000 VRB03KT P6SM SCT050=



000
FTUS41 KLWX 010800 AAA
TAFBWI
TAF AMD
KBWI 010834Z 0109/0212 23003KT P6SM VCSH OVC060
     FM011200 24005KT P6SM BKN030
     FM011700 26006KT P6SM VCTS BKN035CB
     FM012300 00000KT P6SM SCT050=



000
FTUS41 KLWX 010800 AAA
TAFIAD
TAF AMD
KIAD 010833Z 0109/0212 00000KT P6SM VCSH OVC070
     FM011200 20003KT P6SM BKN030
     FM011700 25005KT P6SM VCTS BKN035CB
     FM012200 20007KT P6SM SCT050
     FM020500 00000KT P6SM FEW050=



000
FTUS41 KLWX 010800 AAA
TAFCHO
TAF AMD
KCHO 010832Z 0109/0206 VRB03KT 3SM SHRA OVC070
     FM010930 21004KT 5SM BR BKN060
     FM011200 21004KT P6SM BKN060
     FM011500 22006KT P6SM SCT050
     FM012300 00000KT P6SM FEW050=



000
FTUS41 KLWX 010500
TAFMTN
TAF
KMTN 010540Z 0106/0206 NIL=



000
FTUS41 KLWX 010500
TAFBWI
TAF
KBWI 010540Z 0106/0212 23003KT P6SM OVC070
     FM011200 00000KT P6SM BKN030
     FM011700 26006KT P6SM VCTS BKN035CB
     FM012300 00000KT P6SM SCT050=



000
FTUS41 KLWX 010500
TAFIAD
TAF
KIAD 010540Z 0106/0212 00000KT P6SM OVC070
     FM011000 20003KT P6SM BKN030
     FM011700 25005KT P6SM VCTS BKN035CB
     FM012200 20007KT P6SM SCT050
     FM020500 00000KT P6SM FEW050=



000
FTUS41 KLWX 010500
TAFCHO
TAF
KCHO 010540Z 0106/0206 VRB03KT P6SM OVC070
     FM011200 00000KT P6SM SCT060
     FM011500 22006KT P6SM SCT050
     FM012300 00000KT P6SM FEW050=



000
FTUS41 KLWX 010500
TAFMRB
TAF
KMRB 010540Z 0106/0206 00000KT P6SM OVC060
     FM010900 VRB03KT P6SM OVC030
     FM011600 26005KT P6SM BKN035=



000
FTUS41 KLWX 010500
TAFDCA
TAF
KDCA 010540Z 0106/0206 18003KT P6SM OVC080
     FM011800 21006KT P6SM VCTS SCT045CB
     FM020000 VRB03KT P6SM SCT050=



000
FTUS41 KLWX 010000 AAA
TAFIAD
TAF AMD
KIAD 010053Z 0101/0206 00000KT 6SM -SHRA OVC130
      TEMPO 0101/0102 5SM -TSRA BKN060CB
     FM010400 19004KT P6SM OVC050
     FM011500 25007KT P6SM BKN045
     FM012000 26007KT P6SM SCT050
     FM012300 25005KT P6SM SCT200
     FM020200 00000KT P6SM FEW250=



000
FTUS41 KLWX 312300
TAFDCA
TAF
KDCA 312325Z 0100/0124 VRB03KT 3SM -TSRA BKN060CB
     FM010200 VRB03KT 5SM -SHRA VCTS OVC050CB
     FM010500 19004KT P6SM OVC060
     FM011400 24008KT P6SM BKN060
     FM012000 26008KT P6SM SCT040
     FM012300 23005KT P6SM SCT150=



000
FTUS41 KLWX 312300
TAFMRB
TAF
KMRB 312325Z 0100/0124 00000KT P6SM OVC080
     FM010200 19005KT P6SM OVC045
     FM010800 00000KT 5SM BR OVC040
     FM011200 VRB03KT P6SM BKN020
     FM011500 27006KT P6SM BKN050
     FM011800 27008KT P6SM SCT035=



000
FTUS41 KLWX 312300
TAFCHO
TAF
KCHO 312325Z 0100/0124 22006KT 5SM -TSRA SCT040CB BKN110
     FM010100 22007KT 6SM -SHRA OVC060
     FM010500 21004KT P6SM OVC045
     FM010900 21005KT 5SM BR BKN100
     FM011200 22005KT 5SM BR SCT035
     FM011500 25007KT P6SM SCT045
     FM012300 VRB03KT P6SM FEW060=



000
FTUS41 KLWX 312300
TAFIAD
TAF
KIAD 312325Z 0100/0206 00000KT 6SM -SHRA OVC060
     FM010400 19004KT P6SM OVC050
     FM011500 25007KT P6SM BKN045
     FM012000 26007KT P6SM SCT050
     FM012300 25005KT P6SM SCT200
     FM020200 00000KT P6SM FEW250=



000
FTUS41 KLWX 312300
TAFMTN
TAF
KMTN 312325Z 0100/0124 22005KT 5SM -SHRA VCTS OVC045CB
     FM010400 20005KT P6SM OVC050
     FM012000 25008KT P6SM SCT070
      AMD NOT SKED 0102/0112=



000
FTUS41 KLWX 312300
TAFBWI
TAF
KBWI 312325Z 0100/0206 23004KT 3SM -TSRA OVC060CB
     FM010100 00000KT 5SM -SHRA VCTS OVC045CB
     FM010500 20005KT P6SM OVC045
     FM011500 25008KT P6SM BKN035
     FM012000 26009KT P6SM SCT070
     FM012300 24005KT P6SM SCT250
     FM020100 00000KT P6SM SCT250=



000
FTUS41 KLWX 312100 AAB
TAFIAD
TAF AMD
KIAD 312128Z 3121/0124 22009KT P6SM VCTS OVC040CB
      TEMPO 3122/3123 25020G40KT 1SM -TSRA
     FM010400 19004KT P6SM VCTS OVC050CB
     FM010600 VRB03KT P6SM OVC050
     FM011300 22007KT P6SM BKN040
     FM012000 26007KT P6SM SCT040=



000
FTUS41 KLWX 312000 AAA
TAFIAD
TAF AMD
KIAD 312046Z 3121/0124 22009KT P6SM VCTS OVC040CB
     FM312200 22007KT 6SM -TSRA OVC040CB
      TEMPO 3122/3124 25020G35KT 2SM -TSRA
     FM010400 19004KT P6SM VCTS OVC050CB
     FM010600 VRB03KT P6SM OVC050
     FM011300 22007KT P6SM BKN040
     FM012000 26007KT P6SM SCT040=



000
FTUS41 KLWX 312000 AAA
TAFBWI
TAF AMD
KBWI 312046Z 3121/0124 21010KT P6SM VCTS BKN040CB
     FM312200 21008KT 6SM TSRA BKN050CB
      TEMPO 3123/0102 25015G30KT 4SM -TSRA
     FM010400 20005KT P6SM VCTS OVC040CB
     FM010600 20005KT P6SM OVC050
     FM011600 25008KT P6SM BKN035
     FM012000 26009KT P6SM SCT070
     FM012300 24005KT P6SM SCT250=



000
FTUS41 KLWX 312000 AAA
TAFDCA
TAF AMD
KDCA 312046Z 3121/0118 21011KT P6SM VCTS BKN040CB
     FM312200 21009KT 6SM -TSRA BKN040CB
      TEMPO 3123/0102 25015G30KT 4SM -TSRA
     FM010400 19004KT P6SM VCTS OVC050CB
     FM010600 19005KT P6SM OVC070=



000
FTUS41 KLWX 311700
TAFDCA
TAF
KDCA 311720Z 3118/0118 21011KT P6SM SCT040
     FM311900 21012KT P6SM VCTS BKN040CB
     FM312200 21009KT P6SM -TSRA BKN040CB
      TEMPO 3122/0102 25015G30KT 4SM TSRA
     FM010400 19004KT P6SM VCTS OVC050CB
     FM010600 19005KT P6SM OVC070=



000
FTUS41 KLWX 311700
TAFCHO
TAF
KCHO 311720Z 3118/0118 21010KT P6SM SCT040
     FM311900 21010KT P6SM VCTS BKN045CB
     FM010000 21004KT P6SM TSRA BKN040CB
     FM010400 20004KT 5SM BR VCTS OVC060CB
     FM010600 21004KT 3SM BR OVC050
     FM011200 22005KT 3SM BR SCT035
     FM011500 25007KT P6SM SCT045=



000
FTUS41 KLWX 311700
TAFIAD
TAF
KIAD 311720Z 3118/0124 20011KT P6SM SCT040
     FM311900 21011KT P6SM VCTS BKN040CB
     FM312100 22009KT P6SM -TSRA OVC040CB
      TEMPO 3122/0102 25015G30KT 4SM TSRA
     FM010400 19004KT P6SM VCTS OVC050CB
     FM010600 VRB03KT P6SM OVC050
     FM011300 22007KT P6SM BKN040
     FM011500 25007KT P6SM BKN030
     FM011900 27007KT P6SM BKN045
     FM012000 26007KT P6SM SCT040=



000
FTUS41 KLWX 311700
TAFBWI
TAF
KBWI 311720Z 3118/0124 21011KT P6SM SCT040
     FM311900 21011KT P6SM VCTS BKN040CB
     FM312100 21010KT P6SM -TSRA BKN040CB
      TEMPO 3122/0102 25015G30KT 4SM TSRA
     FM010400 20005KT P6SM VCTS OVC040CB
     FM010600 20005KT P6SM OVC050
     FM011500 24008KT P6SM BKN030
     FM011600 25008KT P6SM BKN035
     FM012000 26009KT P6SM SCT070
     FM012300 24005KT P6SM SCT250=



000
FTUS41 KLWX 311700
TAFMTN
TAF
KMTN 311720Z 3118/0118 20011KT P6SM SCT060
     FM311900 20011KT P6SM VCTS BKN060CB
     FM312100 20010KT P6SM TSRA BKN045CB
      TEMPO 3122/0102 25015G30KT 4SM TSRA
     FM010400 20005KT P6SM VCTS OVC050CB
     FM010600 20004KT P6SM OVC050=



000
FTUS41 KLWX 311700
TAFMRB
TAF
KMRB 311720Z 3118/0118 22008KT P6SM VCTS BKN035CB
     FM312000 23007KT P6SM -TSRA BKN040CB
     FM010300 VRB03KT 5SM TSRA BR OVC045CB
     FM010400 00000KT 5SM BR VCTS OVC045CB
     FM010600 00000KT 3SM BR OVC050
     FM010900 VRB03KT 5SM BR OVC035
     FM011200 VRB03KT 3SM BR BKN020
     FM011500 27006KT P6SM BKN050=



000
FTUS41 KLWX 311400 AAA
TAFBWI
TAF AMD
KBWI 311456Z 3115/0118 21008KT P6SM SCT090
     FM311600 21008KT P6SM BKN090
     FM311800 21009KT P6SM VCTS BKN040CB
     FM312100 21008KT P6SM -TSRA OVC050CB
     FM010000 25004KT P6SM -TSRA OVC040CB
      TEMPO 0100/0103 4SM -TSRA
     FM010300 20004KT P6SM OVC040=



000
FTUS41 KLWX 311400 AAA
TAFIAD
TAF AMD
KIAD 311456Z 3115/0118 20008KT P6SM SCT090
     FM311600 20009KT P6SM BKN080
     FM311800 20010KT P6SM VCTS BKN070CB
     FM312100 23007KT P6SM TSRA OVC040CB
      TEMPO 3122/0101 4SM -TSRA
     FM010300 VRB03KT P6SM OVC050=



000
FTUS41 KLWX 311400 AAA
TAFDCA
TAF AMD
KDCA 311456Z 3115/0112 21008KT P6SM SCT090
     FM311700 21009KT P6SM BKN090
     FM311800 21010KT P6SM VCTS BKN090CB
     FM312300 24004KT P6SM VCTS OVC040CB
     FM010000 00000KT P6SM -TSRA OVC040CB
      TEMPO 0100/0103 4SM -TSRA
     FM010300 00000KT P6SM OVC040=



000
FTUS41 KLWX 311100
TAFBWI
TAF
KBWI 311126Z 3112/0118 20006KT P6SM BKN040
     FM311800 21009KT P6SM VCTS SCT050CB BKN150
     FM312200 22007KT P6SM -SHRA VCTS SCT050CB OVC090
     FM010000 25004KT P6SM -SHRA OVC090
     FM010100 24004KT P6SM OVC110=



000
FTUS41 KLWX 311100
TAFIAD
TAF
KIAD 311126Z 3112/0118 19007KT P6SM BKN040
     FM311800 20010KT P6SM VCTS SCT050CB BKN110
     FM312200 23005KT P6SM -SHRA VCTS SCT050CB OVC090
     FM010000 00000KT P6SM -SHRA OVC080
     FM010100 00000KT P6SM OVC100
     FM011400 24006KT P6SM BKN040=



000
FTUS41 KLWX 311100
TAFMTN
TAF
KMTN 311126Z 3112/0112 20007KT P6SM BKN050
     FM311800 19009KT P6SM VCTS SCT050CB BKN100
     FM312200 20007KT P6SM -SHRA VCTS SCT050CB OVC090
     FM010000 20004KT P6SM -SHRA OVC090
     FM010100 20004KT P6SM OVC100=



000
FTUS41 KLWX 311100
TAFCHO
TAF
KCHO 311126Z 3112/0112 20005KT 3SM BR BKN040
     FM311400 21006KT P6SM SCT040 BKN150
     FM311800 21008KT P6SM VCTS SCT050CB BKN200
     FM010000 20004KT P6SM BKN090
     FM010300 00000KT P6SM BKN080=



000
FTUS41 KLWX 311100
TAFDCA
TAF
KDCA 311126Z 3112/0112 20006KT P6SM SCT040 BKN070
     FM311600 21009KT P6SM FEW040 SCT250
     FM311800 21010KT P6SM VCTS SCT050CB BKN200
     FM312200 22007KT P6SM -SHRA VCTS SCT050CB BKN090
     FM010000 00000KT P6SM -SHRA OVC090
     FM010100 00000KT P6SM OVC120=



000
FTUS41 KLWX 311100
TAFMRB
TAF
KMRB 311126Z 3112/0112 20004KT 3SM BR BKN040
     FM311500 20005KT P6SM SCT040 BKN110
     FM311800 21007KT P6SM -SHRA VCTS SCT050CB OVC060
     FM312100 VRB03KT P6SM -SHRA VCTS SCT050CB BKN070
     FM010000 00000KT P6SM -SHRA OVC050
     FM010100 00000KT P6SM OVC060
     FM010600 VRB03KT P6SM OVC035
     FM010900 VRB03KT P6SM OVC030
     FM011000 VRB03KT P6SM BKN040=



000
FTUS41 KLWX 311000 AAC
TAFBWI
TAF AMD
KBWI 311013Z 3110/0112 20003KT 6SM BR BKN005 OVC040
     FM311300 20005KT 6SM BR SCT008 BKN030
     FM311400 21007KT P6SM FEW005 SCT050
     FM312200 22007KT P6SM -SHRA SCT050 OVC090
     FM010200 24004KT P6SM SCT040 OVC110=



000
FTUS41 KLWX 310800 AAB
TAFBWI
TAF AMD
KBWI 310824Z 3108/0112 00000KT P6SM SCT007 OVC040
      TEMPO 3108/3109 VRB04KT 6SM BR BKN009 OVC030
     FM310900 19005KT P6SM BKN030
     FM311400 21007KT P6SM FEW040 SCT050
     FM312200 22007KT P6SM -SHRA SCT050 OVC090
     FM010200 24004KT P6SM SCT040 OVC110=



000
FTUS41 KLWX 310800 AAA
TAFDCA
TAF AMD
KDCA 310824Z 3108/0106 19006KT P6SM FEW008 SCT140 BKN250
     FM311000 19005KT P6SM SCT030 BKN090
     FM311400 21008KT P6SM FEW040 SCT150
     FM312200 22007KT P6SM -SHRA SCT050 BKN090
     FM010200 00000KT P6SM SCT040 OVC120=



000
FTUS41 KLWX 310800 AAA
TAFIAD
TAF AMD
KIAD 310824Z 3108/0112 17005KT P6SM FEW250
     FM311100 18006KT 5SM BR SCT030 BKN060
     FM311200 20007KT P6SM SCT040 BKN080
     FM311700 20010KT P6SM SCT050 BKN110
     FM312100 23005KT P6SM -SHRA SCT050 OVC090
     FM010100 VRB03KT P6SM SCT040 OVC100=



000
FTUS41 KLWX 310800 AAA
TAFMRB
TAF AMD
KMRB 310805Z 3108/0106 00000KT 2SM BR SKC
      TEMPO 3108/3110 1/2SM FG SCT001
     FM311200 18004KT 5SM BR SCT030 BKN090
     FM311400 20005KT P6SM BKN035 BKN045
     FM311800 21007KT P6SM -SHRA SCT050 OVC070
     FM010000 00000KT P6SM OVC060=



000
FTUS41 KLWX 310600 AAA
TAFBWI
TAF AMD
KBWI 310610Z 3106/0112 00000KT P6SM FEW030 BKN045
      TEMPO 3106/3109 VRB04KT 6SM BR BKN009 OVC030
     FM310900 19005KT P6SM BKN030
     FM311400 21007KT P6SM FEW040 SCT050
     FM312200 22007KT P6SM -SHRA SCT050 OVC090
     FM010200 24004KT P6SM SCT040 OVC110=



000
FTUS41 KLWX 310500
TAFBWI
TAF
KBWI 310536Z 3106/0112 00000KT P6SM FEW030 BKN045
     FM310900 19005KT P6SM BKN030
     FM311400 21007KT P6SM FEW040 SCT050
     FM312200 22007KT P6SM -SHRA SCT050 OVC090
     FM010200 24004KT P6SM SCT040 OVC110=



000
FTUS41 KLWX 310500
TAFMRB
TAF
KMRB 310536Z 3106/0106 00000KT 6SM BR SCT050
     FM310800 17005KT 5SM BR SCT030 BKN130
     FM311000 18004KT 3SM BR SCT030 BKN090
     FM311400 20005KT P6SM BKN035 BKN045
     FM311800 21007KT P6SM -SHRA SCT050 OVC070
     FM010000 00000KT P6SM OVC060=



000
FTUS41 KLWX 310500
TAFDCA
TAF
KDCA 310536Z 3106/0106 18009KT P6SM BKN035 OVC250
     FM311000 19005KT P6SM SCT030 BKN090
     FM311400 21008KT P6SM FEW040 SCT150
     FM312200 22007KT P6SM -SHRA SCT050 BKN090
     FM010200 00000KT P6SM SCT040 OVC120=



000
FTUS41 KLWX 310500
TAFMTN
TAF
KMTN 310536Z 3106/0106 NIL=



000
FTUS41 KLWX 310500
TAFCHO
TAF
KCHO 310536Z 3106/0106 19008KT P6SM SCT050
     FM310800 VRB03KT 3SM BR SCT030 BKN070
     FM311200 20005KT 6SM BR SCT015 BKN040
     FM311300 20005KT P6SM BKN035 BKN040
     FM311600 21007KT P6SM FEW040 SCT200
     FM010000 20004KT P6SM BKN090=



000
FTUS41 KLWX 310500
TAFIAD
TAF
KIAD 310536Z 3106/0112 17005KT P6SM SCT035 BKN130
     FM310900 18006KT 5SM BR SCT030 BKN060
     FM311400 20007KT P6SM SCT040 BKN080
     FM311700 20010KT P6SM SCT050 BKN110
     FM312100 23005KT P6SM -SHRA SCT050 OVC090
     FM010100 VRB03KT P6SM SCT040 OVC100=



000
FTUS41 KLWX 310200 AAA
TAFDCA
TAF AMD
KDCA 310233Z 3103/3124 15005KT P6SM BKN120
     FM311000 20006KT 5SM BR BKN130
     FM311200 20007KT P6SM BKN130
     FM311800 20010KT P6SM -SHRA VCTS BKN050CB
     FM312200 21009KT P6SM BKN050=



000
FTUS41 KLWX 310200 AAA
TAFIAD
TAF AMD
KIAD 310232Z 3103/0106 15006KT P6SM SCT100
     FM310900 19006KT 5SM BR BKN130
     FM311300 20007KT P6SM BKN090
     FM311800 20010KT P6SM -SHRA VCTS BKN050CB
     FM312200 22007KT P6SM BKN050
     FM010100 VRB03KT P6SM OVC050=



000
FTUS41 KLWX 302300 RRA
TAFDCA
TAF
KDCA 302347Z 3100/3124 13009KT P6SM OVC050
     FM311000 20006KT 5SM BR BKN130
     FM311200 20007KT P6SM BKN130
     FM311800 20010KT P6SM -SHRA VCTS BKN050CB
     FM312200 21009KT P6SM BKN050=



000
FTUS41 KLWX 302300 RRA
TAFCHO
TAF
KCHO 302347Z 3100/3124 18005KT P6SM SCT035
     FM310700 VRB03KT 5SM BR BKN250
     FM310800 VRB03KT 3SM BR BKN130
     FM311300 20007KT 5SM BR BKN090
     FM311800 20008KT P6SM -SHRA VCTS BKN050CB
     FM312200 21006KT P6SM BKN050=



000
FTUS41 KLWX 302300 RRA
TAFBWI
TAF
KBWI 302347Z 3100/0106 14006KT P6SM BKN050
     FM311000 19006KT 5SM BR BKN250
     FM311300 20007KT P6SM BKN130
     FM311800 20009KT P6SM -SHRA VCTS BKN050CB
     FM312200 21009KT P6SM BKN050
     FM010100 23005KT P6SM OVC050=



000
FTUS41 KLWX 302300 RRA
TAFMRB
TAF
KMRB 302347Z 3100/3124 13005KT P6SM BKN120
     FM310800 18005KT 5SM BR OVC050
     FM311000 19005KT 3SM BR OVC050
     FM311500 21007KT 5SM BR BKN050
     FM311800 23007KT P6SM -SHRA VCTS BKN050CB=



000
FTUS41 KLWX 302300 RRA
TAFIAD
TAF
KIAD 302347Z 3100/0106 17004KT P6SM BKN030
     FM310900 19006KT 5SM BR BKN130
     FM311300 20007KT P6SM BKN090
     FM311800 20010KT P6SM -SHRA VCTS BKN050CB
     FM312200 22007KT P6SM BKN050
     FM010100 VRB03KT P6SM OVC050=



000
FTUS41 KLWX 302300 RRA
TAFMTN
TAF
KMTN 302347Z 3100/3124 14005KT P6SM OVC035
     FM310400 17009KT P6SM BKN250
     FM311200 20007KT 5SM BR BKN130
     FM311300 20008KT 3SM BR BKN130
     FM311800 20010KT P6SM -SHRA VCTS BKN050CB
     FM312200 20009KT P6SM BKN090
      AMD NOT SKED 3102/3112=



000
FTUS41 KLWX 302100 AAA
TAFDCA
TAF AMD
KDCA 302121Z 3021/3118 18007KT P6SM OVC045
     FM302300 16007KT P6SM BKN060
     FM311200 20006KT 5SM BR BKN110
     FM311300 20007KT P6SM BKN110=



000
FTUS41 KLWX 302100 AAC
TAFIAD
TAF AMD
KIAD 302121Z 3021/3124 17006KT P6SM BKN035
     FM302300 16007KT P6SM SCT080
     FM310400 16006KT P6SM BKN080
     FM310900 19006KT 5SM BR BKN080
     FM311200 20007KT 3SM BR BKN090
     FM311300 20007KT P6SM BKN080=



000
FTUS41 KLWX 302100 AAA
TAFBWI
TAF AMD
KBWI 302121Z 3021/3124 15006KT P6SM SCT028 SCT040
     FM311000 19006KT 5SM BR BKN090
     FM311300 20007KT P6SM BKN090=



000
FTUS41 KLWX 302100 AAB
TAFIAD
TAF AMD
KIAD 302114Z 3021/3124 17006KT P6SM BKN035
     FM302300 16007KT P6SM SCT080
     FM310400 16006KT P6SM BKN080
     FM310900 19006KT 5SM BR BKN080
     FM311200 20007KT 3SM BR BKN090
     FM311300 20007KT P6SM BKN080=



000
FTUS41 KLWX 301900 AAA
TAFIAD
TAF AMD
KIAD 301924Z 3019/3124 18006KT P6SM BKN025
     FM302300 16007KT P6SM SCT080
     FM310400 16006KT P6SM BKN080
     FM310900 19006KT 5SM BR BKN080
     FM311200 20007KT 3SM BR BKN090
     FM311300 20007KT P6SM BKN080=



000
FTUS41 KLWX 301700
TAFCHO
TAF
KCHO 301734Z 3018/3118 18006KT P6SM BKN020
     FM302000 18007KT P6SM SCT025
     FM302200 18006KT P6SM SCT140
     FM310700 VRB03KT 5SM BR BKN140
     FM310800 VRB03KT 3SM BR BKN130
     FM311500 20007KT 5SM BR BKN110=



000
FTUS41 KLWX 301700
TAFBWI
TAF
KBWI 301734Z 3018/3124 16008KT P6SM BKN035
     FM311000 19006KT 5SM BR BKN090
     FM311300 20007KT P6SM BKN090=



000
FTUS41 KLWX 301700
TAFDCA
TAF
KDCA 301734Z 3018/3118 17008KT P6SM BKN035
     FM302100 17008KT P6SM SCT050
     FM302300 16007KT P6SM BKN060
     FM311200 20006KT 5SM BR BKN110
     FM311300 20007KT P6SM BKN110=



000
FTUS41 KLWX 301700
TAFMTN
TAF
KMTN 301734Z 3018/3118 16009KT P6SM BKN035
     FM301900 16010KT P6SM BKN040
     FM302100 17010KT P6SM SCT100
     FM310600 18007KT P6SM BKN090
     FM311200 20007KT 5SM BR BKN090
     FM311300 20008KT 3SM BR BKN090=



000
FTUS41 KLWX 301700
TAFIAD
TAF
KIAD 301734Z 3018/3124 17009KT P6SM BKN030
     FM301900 17009KT P6SM BKN045
     FM302300 16007KT P6SM SCT080
     FM310400 16006KT P6SM BKN080
     FM310900 19006KT 5SM BR BKN080
     FM311200 20007KT 3SM BR BKN090
     FM311300 20007KT P6SM BKN080=



000
FTUS41 KLWX 301700
TAFMRB
TAF
KMRB 301734Z 3018/3118 16009KT P6SM SCT025 BKN070
     FM310000 17006KT P6SM BKN070
     FM310800 18005KT 5SM BR OVC070
     FM311000 19005KT 3SM BR OVC070
     FM311500 21007KT 5SM BR BKN060=



000
FTUS41 KLWX 301400 AAA
TAFMRB
TAF AMD
KMRB 301455Z 3015/3112 17007KT P6SM BKN025
     FM301800 16009KT P6SM BKN100
     FM310000 16006KT P6SM VCTS BKN070CB
     FM310200 17007KT P6SM BKN070
     FM310800 17005KT 5SM BR OVC070
     FM311000 18004KT 3SM BR OVC070=



000
FTUS41 KLWX 301400 AAA
TAFBWI
TAF AMD
KBWI 301455Z 3015/3118 16006KT P6SM OVC040
     FM311000 18006KT 5SM BR BKN090
     FM311300 20007KT P6SM BKN090=



000
FTUS41 KLWX 301400 AAA
TAFDCA
TAF AMD
KDCA 301455Z 3015/3112 17005KT P6SM OVC040
     FM310100 16007KT P6SM BKN250=



000
FTUS41 KLWX 301400 AAA
TAFIAD
TAF AMD
KIAD 301455Z 3015/3118 17007KT P6SM OVC025
     FM301600 17008KT P6SM BKN035
     FM310900 17006KT 5SM BR BKN080
     FM311200 19006KT 3SM BR BKN090
     FM311300 20007KT P6SM BKN080=



000
FTUS41 KLWX 301400 AAA
TAFCHO
TAF AMD
KCHO 301455Z 3015/3112 VRB03KT P6SM OVC015
     FM301700 18005KT P6SM BKN045
     FM301900 18006KT P6SM SCT150
     FM310200 00000KT P6SM SCT250
     FM310700 VRB03KT 5SM BR BKN140
     FM310800 VRB03KT 3SM BR BKN130=



000
FTUS41 KLWX 301100
TAFBWI
TAF
KBWI 301131Z 3012/3118 11004KT P6SM BKN035 OVC060
     FM301400 15008KT P6SM BKN060
     FM301900 16008KT P6SM BKN090
     FM302300 16008KT P6SM SCT250
     FM310500 17006KT P6SM BKN090
     FM310700 18006KT 4SM BR BKN050
     FM311200 20006KT P6SM BKN200=



000
FTUS41 KLWX 301100
TAFIAD
TAF
KIAD 301131Z 3012/3118 16003KT P6SM BKN028 OVC050
     FM301400 16007KT P6SM BKN050
     FM302300 15008KT P6SM SCT250
     FM310400 16006KT P6SM BKN090
     FM310600 17006KT 3SM BR BKN050
     FM311300 20007KT P6SM BKN250=



000
FTUS41 KLWX 301100
TAFMRB
TAF
KMRB 301131Z 3012/3112 00000KT P6SM SCT040
     FM301700 16009KT P6SM BKN090
     FM310300 16006KT 5SM BR BKN250
     FM310600 17005KT 3SM BR BKN050=



000
FTUS41 KLWX 301100
TAFMTN
TAF
KMTN 301131Z 3012/3112 12005KT P6SM BKN040
     FM301400 15005KT P6SM BKN050
     FM302100 16009KT P6SM BKN250
     FM310600 17006KT 5SM BR BKN090
     FM310900 18006KT 5SM BR BKN050=



000
FTUS41 KLWX 301100
TAFCHO
TAF
KCHO 301131Z 3012/3112 00000KT P6SM OVC013
     FM301400 00000KT P6SM BKN050
     FM301800 16005KT P6SM SCT090
     FM310300 VRB03KT 5SM BR SCT250
     FM310600 VRB03KT 2SM BR SCT090
     FM310900 VRB03KT 2SM BR BKN025=



000
FTUS41 KLWX 301100
TAFDCA
TAF
KDCA 301131Z 3012/3112 19005KT P6SM SCT030 OVC060
     FM301700 16007KT P6SM BKN050
     FM302300 15008KT P6SM SCT250
     FM310500 17005KT P6SM BKN090
     FM310600 17005KT 5SM BR BKN090
     FM311000 19006KT 5SM BR BKN050=



000
FTUS41 KLWX 300800 AAA
TAFIAD
TAF AMD
KIAD 300846Z 3009/3112 14004KT P6SM BKN050
     FM301600 16007KT P6SM BKN050
     FM302300 15008KT P6SM SCT250
     FM310600 17006KT 5SM BR BKN250=



000
FTUS41 KLWX 300800 AAA
TAFBWI
TAF AMD
KBWI 300846Z 3009/3112 VRB03KT P6SM BKN090
     FM301600 16007KT P6SM BKN050
     FM302300 16008KT P6SM SCT250
     FM310600 17006KT 5SM BR BKN250
     FM310900 18006KT P6SM BKN015=



000
FTUS41 KLWX 300800 AAA
TAFMTN
TAF AMD
KMTN 300846Z 3009/3106 NIL=



000
FTUS41 KLWX 300800 AAC
TAFCHO
TAF AMD
KCHO 300846Z 3009/3106 00000KT P6SM BKN015
     FM301000 00000KT 5SM BR BKN025
     FM301300 00000KT P6SM BKN050
     FM301800 16005KT P6SM SCT090
     FM310300 VRB03KT 5SM BR SCT250=



000
FTUS41 KLWX 300800 AAA
TAFMRB
TAF AMD
KMRB 300846Z 3009/3106 07003KT P6SM BKN045
     FM301400 16007KT P6SM BKN050
     FM310300 16006KT 5SM BR BKN250=



000
FTUS41 KLWX 300800 AAA
TAFDCA
TAF AMD
KDCA 300846Z 3009/3106 16005KT P6SM BKN060
     FM301700 16007KT P6SM BKN050
     FM302300 15008KT P6SM SCT250=



000
FTUS41 KLWX 300800 AAB
TAFCHO
TAF AMD
KCHO 300826Z 3008/3106 00000KT P6SM OVC016
     FM301200 00000KT 3SM BR SCT025
     FM301400 00000KT P6SM SCT050
     FM301900 16006KT P6SM SCT090
     FM310300 VRB03KT 5SM BR BKN250=



000
FTUS41 KLWX 300700 AAA
TAFCHO
TAF AMD
KCHO 300732Z 3008/3106 00000KT P6SM OVC060
     FM300900 00000KT 3SM BR BKN035
     FM301200 00000KT 3SM BR SCT025
     FM301400 00000KT P6SM SCT050
     FM301900 16006KT P6SM SCT090
     FM310300 VRB03KT 5SM BR BKN250=



000
FTUS41 KLWX 300500
TAFBWI
TAF
KBWI 300532Z 3006/3112 13005KT P6SM BKN050
     FM300700 13004KT P6SM BKN090
     FM301900 16008KT P6SM BKN090
     FM310600 17006KT 5SM BR BKN250
     FM310900 18006KT P6SM BKN025=



000
FTUS41 KLWX 300500
TAFIAD
TAF
KIAD 300532Z 3006/3112 VRB03KT P6SM OVC050
     FM301600 16007KT P6SM BKN050
     FM310600 17006KT 3SM BR BKN250=



000
FTUS41 KLWX 300500
TAFDCA
TAF
KDCA 300532Z 3006/3106 13004KT P6SM BKN050
     FM301900 16008KT P6SM BKN050=



000
FTUS41 KLWX 300500
TAFMTN
TAF
KMTN 300532Z 3006/3106 NIL=



000
FTUS41 KLWX 300500
TAFCHO
TAF
KCHO 300532Z 3006/3106 00000KT P6SM OVC035
     FM300800 00000KT 5SM BR BKN035
     FM300900 00000KT 3SM BR BKN035
     FM301200 00000KT 3SM BR SCT025
     FM301400 00000KT P6SM SCT050
     FM301900 16006KT P6SM SCT090
     FM310300 VRB03KT 5SM BR BKN250=



000
FTUS41 KLWX 300500
TAFMRB
TAF
KMRB 300532Z 3006/3106 VRB03KT P6SM BKN050
     FM301100 15004KT P6SM SCT050
     FM301300 16006KT P6SM BKN050
     FM301900 16010KT P6SM BKN250
     FM310100 16006KT P6SM BKN250
     FM310300 16006KT 5SM BR BKN250=



000
FTUS41 KLWX 300300 AAA
TAFCHO
TAF AMD
KCHO 300322Z 3003/3024 00000KT P6SM OVC040
     FM300900 00000KT 3SM BR BKN030
     FM301200 00000KT 3SM BR SCT025
     FM301300 00000KT P6SM SCT020
     FM301900 16006KT P6SM SCT035=



000
FTUS41 KLWX 292300
TAFDCA
TAF
KDCA 292332Z 3000/3024 10009KT P6SM SCT250
     FM300800 VRB03KT P6SM BKN110
     FM301700 16007KT P6SM BKN035=



000
FTUS41 KLWX 292300
TAFBWI
TAF
KBWI 292332Z 3000/3106 10007KT P6SM SCT250
     FM301100 VRB03KT P6SM BKN100
     FM301600 16007KT P6SM BKN040=



000
FTUS41 KLWX 292300
TAFIAD
TAF
KIAD 292332Z 3000/3106 17004KT P6SM SCT250
     FM300700 VRB03KT P6SM BKN070
     FM301600 16007KT P6SM BKN035=



000
FTUS41 KLWX 292300
TAFMRB
TAF
KMRB 292332Z 3000/3024 11004KT P6SM SCT250
     FM301200 15005KT P6SM SCT040
     FM301300 16006KT P6SM BKN045
     FM301900 16010KT P6SM BKN035=



000
FTUS41 KLWX 292300
TAFMTN
TAF
KMTN 292332Z 3000/3024 00000KT P6SM SCT200
     FM301000 VRB03KT P6SM BKN110
     FM301600 16007KT P6SM BKN045
      AMD NOT SKED 3002/3012=



000
FTUS41 KLWX 292300
TAFCHO
TAF
KCHO 292332Z 3000/3024 16005KT P6SM SCT250
     FM300900 00000KT 3SM BR BKN030
     FM301200 00000KT 3SM BR SCT025
     FM301300 00000KT P6SM SCT020
     FM301900 16006KT P6SM SCT035=



000
FTUS41 KLWX 292100 AAA
TAFDCA
TAF AMD
KDCA 292132Z 2922/3018 18006KT P6SM FEW070 SCT250
     FM300800 VRB03KT P6SM BKN110
     FM301700 16007KT P6SM BKN035=



000
FTUS41 KLWX 292100 AAA
TAFIAD
TAF AMD
KIAD 292132Z 2922/3024 10003KT P6SM FEW050 SCT250
     FM300700 VRB03KT P6SM BKN070
     FM301600 16007KT P6SM BKN035=



000
FTUS41 KLWX 292100 AAA
TAFBWI
TAF AMD
KBWI 292132Z 2922/3024 09005KT P6SM FEW070 SCT250
     FM301100 VRB03KT P6SM BKN100
     FM301600 16007KT P6SM BKN040=



    US Dept of Commerce
    National Oceanic and Atmospheric Administration
    National Weather Service
    1325 East West Highway
    Silver Spring, MD 20910
    Page Author: NWS Internet Services Team
Disclaimer
Information Quality
Credits
Glossary
Privacy Policy
Freedom of Information Act (FOIA)
About Us
Career Opportunities